sensor_id;sensor_type;location;lat;lon;timestamp;temperature;humidity
51021;DHT22;38907;45.562;8.856;2022-12-20T00:01:07;5.50;99.90
51021;DHT22;38907;45.562;8.856;2022-12-20T00:06:10;5.50;99.90
51021;DHT22;38907;45.562;8.856;2022-12-20T00:11:13;5.40;99.90
51021;DHT22;38907;45.562;8.856;2022-12-20T00:16:17;5.40;99.90
51021;DHT22;38907;45.562;8.856;2022-12-20T00:21:19;5.30;99.90
51021;DHT22;38907;45.562;8.856;2022-12-20T00:26:24;5.30;99.90
51021;DHT22;38907;45.562;8.856;2022-12-20T00:31:28;5.30;99.90
51021;DHT22;38907;45.562;8.856;2022-12-20T00:36:31;5.20;99.90
51021;DHT22;38907;45.562;8.856;2022-12-20T00:41:35;5.30;99.90
51021;DHT22;38907;45.562;8.856;2022-12-20T00:46:37;5.30;99.90
51021;DHT22;38907;45.562;8.856;2022-12-20T00:51:39;5.30;99.90
51021;DHT22;38907;45.562;8.856;2022-12-20T00:56:42;5.30;99.90
51021;DHT22;38907;45.562;8.856;2022-12-20T01:01:44;5.20;99.90
51021;DHT22;38907;45.562;8.856;2022-12-20T01:06:47;5.20;99.90
51021;DHT22;38907;45.562;8.856;2022-12-20T01:11:50;5.20;99.90
51021;DHT22;38907;45.562;8.856;2022-12-20T01:16:52;5.20;99.90
51021;DHT22;38907;45.562;8.856;2022-12-20T01:21:54;5.30;99.90
51021;DHT22;38907;45.562;8.856;2022-12-20T01:26:57;5.20;99.90
51021;DHT22;38907;45.562;8.856;2022-12-20T01:31:59;5.10;99.90
51021;DHT22;38907;45.562;8.856;2022-12-20T01:37:01;5.20;99.90
51021;DHT22;38907;45.562;8.856;2022-12-20T01:42:04;5.20;99.90
51021;DHT22;38907;45.562;8.856;2022-12-20T01:47:06;5.20;99.90
51021;DHT22;38907;45.562;8.856;2022-12-20T01:52:12;5.10;99.90
51021;DHT22;38907;45.562;8.856;2022-12-20T01:57:19;5.20;99.90
51021;DHT22;38907;45.562;8.856;2022-12-20T02:02:21;5.30;99.90
51021;DHT22;38907;45.562;8.856;2022-12-20T02:07:25;5.30;99.90
51021;DHT22;38907;45.562;8.856;2022-12-20T02:12:33;5.30;99.90
51021;DHT22;38907;45.562;8.856;2022-12-20T02:17:44;5.30;99.90
51021;DHT22;38907;45.562;8.856;2022-12-20T02:23:02;5.30;99.90
51021;DHT22;38907;45.562;8.856;2022-12-20T02:28:19;5.30;99.90
51021;DHT22;38907;45.562;8.856;2022-12-20T02:33:28;5.30;99.90
51021;DHT22;38907;45.562;8.856;2022-12-20T02:38:32;5.20;99.90
51021;DHT22;38907;45.562;8.856;2022-12-20T02:43:38;5.30;99.90
51021;DHT22;38907;45.562;8.856;2022-12-20T02:49:01;5.30;99.90
51021;DHT22;38907;45.562;8.856;2022-12-20T02:54:04;5.30;99.90
51021;DHT22;38907;45.562;8.856;2022-12-20T02:59:10;5.20;99.90
51021;DHT22;38907;45.562;8.856;2022-12-20T03:04:14;5.30;99.90
51021;DHT22;38907;45.562;8.856;2022-12-20T03:09:17;5.30;99.90
51021;DHT22;38907;45.562;8.856;2022-12-20T03:14:19;5.30;99.90
51021;DHT22;38907;45.562;8.856;2022-12-20T03:19:22;5.30;99.90
51021;DHT22;38907;45.562;8.856;2022-12-20T03:24:25;5.30;99.90
51021;DHT22;38907;45.562;8.856;2022-12-20T03:29:27;5.20;99.90
51021;DHT22;38907;45.562;8.856;2022-12-20T03:34:30;5.30;99.90
51021;DHT22;38907;45.562;8.856;2022-12-20T03:39:32;5.20;99.90
51021;DHT22;38907;45.562;8.856;2022-12-20T03:44:34;5.20;99.90
51021;DHT22;38907;45.562;8.856;2022-12-20T03:49:37;5.10;99.90
51021;DHT22;38907;45.562;8.856;2022-12-20T03:54:39;5.10;99.90
51021;DHT22;38907;45.562;8.856;2022-12-20T03:59:41;5.10;99.90
51021;DHT22;38907;45.562;8.856;2022-12-20T04:04:45;5.10;99.90
51021;DHT22;38907;45.562;8.856;2022-12-20T04:09:47;5.10;99.90
51021;DHT22;38907;45.562;8.856;2022-12-20T04:14:49;5.10;99.90
51021;DHT22;38907;45.562;8.856;2022-12-20T04:19:52;5.10;99.90
51021;DHT22;38907;45.562;8.856;2022-12-20T04:24:54;5.00;99.90
51021;DHT22;38907;45.562;8.856;2022-12-20T04:29:55;5.00;99.90
51021;DHT22;38907;45.562;8.856;2022-12-20T04:34:59;5.00;99.90
51021;DHT22;38907;45.562;8.856;2022-12-20T04:40:00;5.10;99.90
51021;DHT22;38907;45.562;8.856;2022-12-20T04:45:03;5.00;99.90
51021;DHT22;38907;45.562;8.856;2022-12-20T04:50:07;5.00;99.90
51021;DHT22;38907;45.562;8.856;2022-12-20T04:55:09;5.00;99.90
51021;DHT22;38907;45.562;8.856;2022-12-20T05:00:12;5.00;99.90
51021;DHT22;38907;45.562;8.856;2022-12-20T05:05:16;5.10;99.90
51021;DHT22;38907;45.562;8.856;2022-12-20T05:10:18;5.10;99.90
51021;DHT22;38907;45.562;8.856;2022-12-20T05:15:20;5.10;99.90
51021;DHT22;38907;45.562;8.856;2022-12-20T05:20:24;5.10;99.90
51021;DHT22;38907;45.562;8.856;2022-12-20T05:25:26;5.00;99.90
51021;DHT22;38907;45.562;8.856;2022-12-20T05:31:00;5.10;99.90
51021;DHT22;38907;45.562;8.856;2022-12-20T05:36:03;5.00;99.90
51021;DHT22;38907;45.562;8.856;2022-12-20T05:41:05;5.10;99.90
51021;DHT22;38907;45.562;8.856;2022-12-20T05:46:09;5.10;99.90
51021;DHT22;38907;45.562;8.856;2022-12-20T05:51:12;5.00;99.90
51021;DHT22;38907;45.562;8.856;2022-12-20T05:56:14;5.10;99.90
51021;DHT22;38907;45.562;8.856;2022-12-20T06:01:16;5.10;99.90
51021;DHT22;38907;45.562;8.856;2022-12-20T06:06:19;5.20;99.90
51021;DHT22;38907;45.562;8.856;2022-12-20T06:11:21;5.10;99.90
51021;DHT22;38907;45.562;8.856;2022-12-20T06:16:23;5.10;99.90
51021;DHT22;38907;45.562;8.856;2022-12-20T06:21:27;5.10;99.90
51021;DHT22;38907;45.562;8.856;2022-12-20T06:26:29;5.20;99.90
51021;DHT22;38907;45.562;8.856;2022-12-20T06:31:35;5.30;99.90
51021;DHT22;38907;45.562;8.856;2022-12-20T06:36:38;5.10;99.90
51021;DHT22;38907;45.562;8.856;2022-12-20T06:41:41;5.20;99.90
51021;DHT22;38907;45.562;8.856;2022-12-20T06:46:44;5.10;99.90
51021;DHT22;38907;45.562;8.856;2022-12-20T06:51:48;5.20;99.90
51021;DHT22;38907;45.562;8.856;2022-12-20T06:56:51;5.10;99.90
51021;DHT22;38907;45.562;8.856;2022-12-20T07:01:53;5.20;99.90
51021;DHT22;38907;45.562;8.856;2022-12-20T07:06:56;5.20;99.90
51021;DHT22;38907;45.562;8.856;2022-12-20T07:11:58;5.20;99.90
51021;DHT22;38907;45.562;8.856;2022-12-20T07:17:00;5.30;99.90
51021;DHT22;38907;45.562;8.856;2022-12-20T07:22:03;5.30;99.90
51021;DHT22;38907;45.562;8.856;2022-12-20T07:27:05;5.40;99.90
51021;DHT22;38907;45.562;8.856;2022-12-20T07:32:07;5.40;99.90
51021;DHT22;38907;45.562;8.856;2022-12-20T07:37:11;5.30;99.90
51021;DHT22;38907;45.562;8.856;2022-12-20T07:42:12;5.40;99.90
51021;DHT22;38907;45.562;8.856;2022-12-20T07:47:14;5.40;99.90
51021;DHT22;38907;45.562;8.856;2022-12-20T07:52:20;5.50;99.90
51021;DHT22;38907;45.562;8.856;2022-12-20T07:57:27;5.60;99.90
51021;DHT22;38907;45.562;8.856;2022-12-20T08:02:33;5.60;99.90
51021;DHT22;38907;45.562;8.856;2022-12-20T08:07:39;5.60;99.90
51021;DHT22;38907;45.562;8.856;2022-12-20T08:12:42;5.70;99.90
51021;DHT22;38907;45.562;8.856;2022-12-20T08:17:45;5.70;99.90
51021;DHT22;38907;45.562;8.856;2022-12-20T08:22:48;5.80;99.90
51021;DHT22;38907;45.562;8.856;2022-12-20T08:27:50;5.70;99.90
51021;DHT22;38907;45.562;8.856;2022-12-20T08:32:52;5.70;99.90
51021;DHT22;38907;45.562;8.856;2022-12-20T08:37:55;5.70;99.90
51021;DHT22;38907;45.562;8.856;2022-12-20T08:42:57;5.70;99.90
51021;DHT22;38907;45.562;8.856;2022-12-20T08:47:59;5.80;99.90
51021;DHT22;38907;45.562;8.856;2022-12-20T08:53:03;5.80;99.90
51021;DHT22;38907;45.562;8.856;2022-12-20T08:58:04;5.80;99.90
51021;DHT22;38907;45.562;8.856;2022-12-20T09:03:06;5.80;99.90
51021;DHT22;38907;45.562;8.856;2022-12-20T09:08:12;5.90;99.90
51021;DHT22;38907;45.562;8.856;2022-12-20T09:13:14;6.00;99.90
51021;DHT22;38907;45.562;8.856;2022-12-20T09:18:16;6.00;99.90
51021;DHT22;38907;45.562;8.856;2022-12-20T09:23:20;6.00;99.90
51021;DHT22;38907;45.562;8.856;2022-12-20T09:28:22;6.00;99.90
51021;DHT22;38907;45.562;8.856;2022-12-20T09:33:23;6.10;99.90
51021;DHT22;38907;45.562;8.856;2022-12-20T09:38:27;6.20;99.90
51021;DHT22;38907;45.562;8.856;2022-12-20T09:43:31;6.30;99.90
51021;DHT22;38907;45.562;8.856;2022-12-20T09:48:36;6.30;99.90
51021;DHT22;38907;45.562;8.856;2022-12-20T09:53:49;6.40;99.90
51021;DHT22;38907;45.562;8.856;2022-12-20T09:58:58;6.50;99.90
51021;DHT22;38907;45.562;8.856;2022-12-20T10:04:03;6.60;99.90
51021;DHT22;38907;45.562;8.856;2022-12-20T10:09:17;6.70;99.90
51021;DHT22;38907;45.562;8.856;2022-12-20T10:14:44;6.90;99.90
51021;DHT22;38907;45.562;8.856;2022-12-20T10:20:13;7.00;99.90
51021;DHT22;38907;45.562;8.856;2022-12-20T10:25:22;7.10;99.90
51021;DHT22;38907;45.562;8.856;2022-12-20T10:30:26;7.20;99.90
51021;DHT22;38907;45.562;8.856;2022-12-20T10:35:28;7.30;99.90
51021;DHT22;38907;45.562;8.856;2022-12-20T10:40:34;7.40;99.90
51021;DHT22;38907;45.562;8.856;2022-12-20T10:45:38;7.40;99.90
51021;DHT22;38907;45.562;8.856;2022-12-20T10:50:41;7.40;99.90
51021;DHT22;38907;45.562;8.856;2022-12-20T10:55:44;7.40;99.90
51021;DHT22;38907;45.562;8.856;2022-12-20T11:00:47;7.40;99.90
51021;DHT22;38907;45.562;8.856;2022-12-20T11:05:54;7.40;99.90
51021;DHT22;38907;45.562;8.856;2022-12-20T11:11:13;7.50;99.90
51021;DHT22;38907;45.562;8.856;2022-12-20T11:16:28;7.60;99.90
51021;DHT22;38907;45.562;8.856;2022-12-20T11:21:43;7.70;99.90
51021;DHT22;38907;45.562;8.856;2022-12-20T11:26:57;7.80;99.90
51021;DHT22;38907;45.562;8.856;2022-12-20T11:32:04;7.80;99.90
51021;DHT22;38907;45.562;8.856;2022-12-20T11:37:17;7.80;99.90
51021;DHT22;38907;45.562;8.856;2022-12-20T11:42:25;7.80;99.90
51021;DHT22;38907;45.562;8.856;2022-12-20T11:47:46;7.90;99.90
51021;DHT22;38907;45.562;8.856;2022-12-20T11:52:55;7.90;99.90
51021;DHT22;38907;45.562;8.856;2022-12-20T11:58:03;7.90;99.90
51021;DHT22;38907;45.562;8.856;2022-12-20T12:03:11;7.90;99.90
51021;DHT22;38907;45.562;8.856;2022-12-20T12:08:18;7.90;99.90
51021;DHT22;38907;45.562;8.856;2022-12-20T12:13:26;8.00;99.90
51021;DHT22;38907;45.562;8.856;2022-12-20T12:18:30;8.00;99.90
51021;DHT22;38907;45.562;8.856;2022-12-20T12:23:38;8.00;99.90
51021;DHT22;38907;45.562;8.856;2022-12-20T12:28:46;8.10;99.90
51021;DHT22;38907;45.562;8.856;2022-12-20T12:34:01;8.10;99.90
51021;DHT22;38907;45.562;8.856;2022-12-20T12:39:39;8.10;99.90
51021;DHT22;38907;45.562;8.856;2022-12-20T12:44:49;8.20;99.90
51021;DHT22;38907;45.562;8.856;2022-12-20T12:49:53;8.10;99.90
51021;DHT22;38907;45.562;8.856;2022-12-20T12:54:56;8.10;99.90
51021;DHT22;38907;45.562;8.856;2022-12-20T13:00:00;8.20;99.90
51021;DHT22;38907;45.562;8.856;2022-12-20T13:05:33;8.20;99.90
51021;DHT22;38907;45.562;8.856;2022-12-20T13:11:03;8.30;99.90
51021;DHT22;38907;45.562;8.856;2022-12-20T13:16:26;8.30;99.90
51021;DHT22;38907;45.562;8.856;2022-12-20T13:21:36;8.30;99.90
51021;DHT22;38907;45.562;8.856;2022-12-20T13:26:49;8.20;99.90
51021;DHT22;38907;45.562;8.856;2022-12-20T13:31:53;8.20;99.90
51021;DHT22;38907;45.562;8.856;2022-12-20T13:36:57;8.20;99.90
51021;DHT22;38907;45.562;8.856;2022-12-20T13:42:14;8.20;99.90
51021;DHT22;38907;45.562;8.856;2022-12-20T13:47:33;8.20;99.90
51021;DHT22;38907;45.562;8.856;2022-12-20T13:52:39;8.20;99.90
51021;DHT22;38907;45.562;8.856;2022-12-20T13:57:44;8.20;99.90
51021;DHT22;38907;45.562;8.856;2022-12-20T14:02:48;8.20;99.90
51021;DHT22;38907;45.562;8.856;2022-12-20T14:07:57;8.20;99.90
51021;DHT22;38907;45.562;8.856;2022-12-20T14:13:00;8.30;99.90
51021;DHT22;38907;45.562;8.856;2022-12-20T14:18:16;8.40;99.90
51021;DHT22;38907;45.562;8.856;2022-12-20T14:23:19;8.40;99.90
51021;DHT22;38907;45.562;8.856;2022-12-20T14:28:25;8.40;99.90
51021;DHT22;38907;45.562;8.856;2022-12-20T14:33:34;8.30;99.90
51021;DHT22;38907;45.562;8.856;2022-12-20T14:38:38;8.20;99.90
51021;DHT22;38907;45.562;8.856;2022-12-20T14:43:40;8.20;99.90
51021;DHT22;38907;45.562;8.856;2022-12-20T14:48:44;8.20;99.90
51021;DHT22;38907;45.562;8.856;2022-12-20T14:53:47;8.20;99.90
51021;DHT22;38907;45.562;8.856;2022-12-20T14:59:04;8.20;99.90
51021;DHT22;38907;45.562;8.856;2022-12-20T15:04:21;8.00;99.90
51021;DHT22;38907;45.562;8.856;2022-12-20T15:09:24;7.90;99.90
51021;DHT22;38907;45.562;8.856;2022-12-20T15:14:33;7.90;99.90
51021;DHT22;38907;45.562;8.856;2022-12-20T15:19:37;7.80;99.90
51021;DHT22;38907;45.562;8.856;2022-12-20T15:24:39;7.80;99.90
51021;DHT22;38907;45.562;8.856;2022-12-20T15:29:41;7.70;99.90
51021;DHT22;38907;45.562;8.856;2022-12-20T15:34:44;7.70;99.90
51021;DHT22;38907;45.562;8.856;2022-12-20T15:39:46;7.70;99.90
51021;DHT22;38907;45.562;8.856;2022-12-20T15:44:48;7.70;99.90
51021;DHT22;38907;45.562;8.856;2022-12-20T15:49:52;7.60;99.90
51021;DHT22;38907;45.562;8.856;2022-12-20T15:54:54;7.50;99.90
51021;DHT22;38907;45.562;8.856;2022-12-20T15:59:56;7.50;99.90
51021;DHT22;38907;45.562;8.856;2022-12-20T16:04:59;7.40;99.90
51021;DHT22;38907;45.562;8.856;2022-12-20T16:10:01;7.40;99.90
51021;DHT22;38907;45.562;8.856;2022-12-20T16:15:03;7.40;99.90
51021;DHT22;38907;45.562;8.856;2022-12-20T16:20:08;7.40;99.90
51021;DHT22;38907;45.562;8.856;2022-12-20T16:25:22;7.40;99.90
51021;DHT22;38907;45.562;8.856;2022-12-20T16:30:26;7.30;99.90
51021;DHT22;38907;45.562;8.856;2022-12-20T16:35:31;7.30;99.90
51021;DHT22;38907;45.562;8.856;2022-12-20T16:40:33;7.30;99.90
51021;DHT22;38907;45.562;8.856;2022-12-20T16:45:35;7.30;99.90
51021;DHT22;38907;45.562;8.856;2022-12-20T16:50:38;7.20;99.90
51021;DHT22;38907;45.562;8.856;2022-12-20T16:55:42;7.20;99.90
51021;DHT22;38907;45.562;8.856;2022-12-20T17:00:45;7.20;99.90
51021;DHT22;38907;45.562;8.856;2022-12-20T17:05:48;7.20;99.90
51021;DHT22;38907;45.562;8.856;2022-12-20T17:10:50;7.20;99.90
51021;DHT22;38907;45.562;8.856;2022-12-20T17:15:52;7.20;99.90
51021;DHT22;38907;45.562;8.856;2022-12-20T17:20:55;7.20;99.90
51021;DHT22;38907;45.562;8.856;2022-12-20T17:25:57;7.30;99.90
51021;DHT22;38907;45.562;8.856;2022-12-20T17:30:59;7.30;99.90
51021;DHT22;38907;45.562;8.856;2022-12-20T17:36:03;7.20;99.90
51021;DHT22;38907;45.562;8.856;2022-12-20T17:41:07;7.20;99.90
51021;DHT22;38907;45.562;8.856;2022-12-20T17:46:11;7.20;99.90
51021;DHT22;38907;45.562;8.856;2022-12-20T17:51:19;7.20;99.90
51021;DHT22;38907;45.562;8.856;2022-12-20T17:56:23;7.20;99.90
51021;DHT22;38907;45.562;8.856;2022-12-20T18:01:27;7.10;99.90
51021;DHT22;38907;45.562;8.856;2022-12-20T18:06:32;7.10;99.90
51021;DHT22;38907;45.562;8.856;2022-12-20T18:11:34;7.10;99.90
51021;DHT22;38907;45.562;8.856;2022-12-20T18:16:36;7.00;99.90
51021;DHT22;38907;45.562;8.856;2022-12-20T18:21:41;6.90;99.90
51021;DHT22;38907;45.562;8.856;2022-12-20T18:26:43;7.00;99.90
51021;DHT22;38907;45.562;8.856;2022-12-20T18:31:45;7.00;99.90
51021;DHT22;38907;45.562;8.856;2022-12-20T18:36:48;6.90;99.90
51021;DHT22;38907;45.562;8.856;2022-12-20T18:41:50;6.90;99.90
51021;DHT22;38907;45.562;8.856;2022-12-20T18:46:52;6.90;99.90
51021;DHT22;38907;45.562;8.856;2022-12-20T18:51:57;6.90;99.90
51021;DHT22;38907;45.562;8.856;2022-12-20T18:56:59;6.90;99.90
51021;DHT22;38907;45.562;8.856;2022-12-20T19:02:01;6.90;99.90
51021;DHT22;38907;45.562;8.856;2022-12-20T19:07:04;6.80;99.90
51021;DHT22;38907;45.562;8.856;2022-12-20T19:12:07;6.80;99.90
51021;DHT22;38907;45.562;8.856;2022-12-20T19:17:17;6.80;99.90
51021;DHT22;38907;45.562;8.856;2022-12-20T19:22:25;6.80;99.90
51021;DHT22;38907;45.562;8.856;2022-12-20T19:27:27;6.90;99.90
51021;DHT22;38907;45.562;8.856;2022-12-20T19:32:30;6.90;99.90
51021;DHT22;38907;45.562;8.856;2022-12-20T19:37:33;7.00;99.90
51021;DHT22;38907;45.562;8.856;2022-12-20T19:42:35;6.90;99.90
51021;DHT22;38907;45.562;8.856;2022-12-20T19:47:37;6.90;99.90
51021;DHT22;38907;45.562;8.856;2022-12-20T19:52:41;6.90;99.90
51021;DHT22;38907;45.562;8.856;2022-12-20T19:57:43;6.90;99.90
51021;DHT22;38907;45.562;8.856;2022-12-20T20:02:45;6.90;99.90
51021;DHT22;38907;45.562;8.856;2022-12-20T20:07:48;6.80;99.90
51021;DHT22;38907;45.562;8.856;2022-12-20T20:12:51;6.80;99.90
51021;DHT22;38907;45.562;8.856;2022-12-20T20:17:53;6.90;99.90
51021;DHT22;38907;45.562;8.856;2022-12-20T20:22:56;6.80;99.90
51021;DHT22;38907;45.562;8.856;2022-12-20T20:27:58;6.90;99.90
51021;DHT22;38907;45.562;8.856;2022-12-20T20:32:59;6.80;99.90
51021;DHT22;38907;45.562;8.856;2022-12-20T20:38:03;6.80;99.90
51021;DHT22;38907;45.562;8.856;2022-12-20T20:43:05;6.80;99.90
51021;DHT22;38907;45.562;8.856;2022-12-20T20:48:07;6.80;99.90
51021;DHT22;38907;45.562;8.856;2022-12-20T20:53:10;6.80;99.90
51021;DHT22;38907;45.562;8.856;2022-12-20T20:58:13;6.70;99.90
51021;DHT22;38907;45.562;8.856;2022-12-20T21:03:16;6.80;99.90
51021;DHT22;38907;45.562;8.856;2022-12-20T21:08:19;6.90;99.90
51021;DHT22;38907;45.562;8.856;2022-12-20T21:13:21;6.80;99.90
51021;DHT22;38907;45.562;8.856;2022-12-20T21:18:23;6.80;99.90
51021;DHT22;38907;45.562;8.856;2022-12-20T21:23:27;6.80;99.90
51021;DHT22;38907;45.562;8.856;2022-12-20T21:28:28;6.80;99.90
51021;DHT22;38907;45.562;8.856;2022-12-20T21:33:31;6.80;99.90
51021;DHT22;38907;45.562;8.856;2022-12-20T21:38:34;6.80;99.90
51021;DHT22;38907;45.562;8.856;2022-12-20T21:43:36;6.70;99.90
51021;DHT22;38907;45.562;8.856;2022-12-20T21:48:38;6.80;99.90
51021;DHT22;38907;45.562;8.856;2022-12-20T21:53:43;6.70;99.90
51021;DHT22;38907;45.562;8.856;2022-12-20T21:58:46;6.70;99.90
51021;DHT22;38907;45.562;8.856;2022-12-20T22:03:49;6.80;99.90
51021;DHT22;38907;45.562;8.856;2022-12-20T22:08:53;6.70;99.90
51021;DHT22;38907;45.562;8.856;2022-12-20T22:13:55;6.70;99.90
51021;DHT22;38907;45.562;8.856;2022-12-20T22:18:58;6.80;99.90
51021;DHT22;38907;45.562;8.856;2022-12-20T22:24:01;6.70;99.90
51021;DHT22;38907;45.562;8.856;2022-12-20T22:29:04;6.60;99.90
51021;DHT22;38907;45.562;8.856;2022-12-20T22:34:06;6.70;99.90
51021;DHT22;38907;45.562;8.856;2022-12-20T22:39:10;6.70;99.90
51021;DHT22;38907;45.562;8.856;2022-12-20T22:44:13;6.60;99.90
51021;DHT22;38907;45.562;8.856;2022-12-20T22:49:16;6.60;99.90
51021;DHT22;38907;45.562;8.856;2022-12-20T22:54:19;6.60;99.90
51021;DHT22;38907;45.562;8.856;2022-12-20T22:59:21;6.70;99.90
51021;DHT22;38907;45.562;8.856;2022-12-20T23:04:23;6.80;99.90
51021;DHT22;38907;45.562;8.856;2022-12-20T23:09:27;6.80;99.90
51021;DHT22;38907;45.562;8.856;2022-12-20T23:14:28;6.80;99.90
51021;DHT22;38907;45.562;8.856;2022-12-20T23:19:48;6.80;99.90
51021;DHT22;38907;45.562;8.856;2022-12-20T23:25:10;6.70;99.90
51021;DHT22;38907;45.562;8.856;2022-12-20T23:30:14;6.70;99.90
51021;DHT22;38907;45.562;8.856;2022-12-20T23:35:18;6.80;99.90
51021;DHT22;38907;45.562;8.856;2022-12-20T23:40:21;6.70;99.90
51021;DHT22;38907;45.562;8.856;2022-12-20T23:45:23;6.70;99.90
51021;DHT22;38907;45.562;8.856;2022-12-20T23:50:25;6.60;99.90
51021;DHT22;38907;45.562;8.856;2022-12-20T23:55:28;6.60;99.90
